createdAt,value
2023-01-06T00:02:10.448Z,77.31
2023-01-06T00:04:43.238Z,77.41
2023-01-06T00:07:16.527Z,77.42
2023-01-06T00:09:52.244Z,77.83
2023-01-06T00:12:26.594Z,77.97
2023-01-06T00:15:01.051Z,77.69
2023-01-06T00:17:36.497Z,77.49
2023-01-06T00:20:10.473Z,77.39
2023-01-06T00:22:44.321Z,77.45
2023-01-06T00:25:17.725Z,77.76
2023-01-06T00:27:50.800Z,77.79
2023-01-06T00:30:25.416Z,77.63
2023-01-06T00:32:58.364Z,77.53
2023-01-06T00:35:31.402Z,77.57
2023-01-06T00:38:04.652Z,77.31
2023-01-06T00:40:38.049Z,77.43
2023-01-06T00:43:11.830Z,77.53
2023-01-06T00:45:45.793Z,77.33
2023-01-06T00:48:21.279Z,77.32
2023-01-06T00:51:03.633Z,77.30
2023-01-06T00:53:40.210Z,77.24
2023-01-06T00:56:13.062Z,77.39
2023-01-06T00:58:46.128Z,77.63
2023-01-06T01:01:20.395Z,77.58
2023-01-06T01:03:53.296Z,77.59
2023-01-06T01:06:26.213Z,77.55
2023-01-06T01:09:00.421Z,78.39
2023-01-06T01:11:50.894Z,77.99
2023-01-06T01:14:23.995Z,77.77
2023-01-06T01:16:59.048Z,77.72
2023-01-06T01:19:32.987Z,77.91
2023-01-06T01:22:06.788Z,77.98
2023-01-06T01:24:39.850Z,77.77
2023-01-06T01:27:13.081Z,78.32
2023-01-06T01:29:46.072Z,78.15
2023-01-06T01:32:20.588Z,78.53
2023-01-06T01:34:54.603Z,78.21
2023-01-06T01:37:27.572Z,78.91
2023-01-06T01:40:01.434Z,78.04
2023-01-06T01:42:34.395Z,78.25
2023-01-06T01:45:20.084Z,78.42
2023-01-06T01:48:01.147Z,77.98
2023-01-06T01:50:43.175Z,78.52
2023-01-06T01:53:20.606Z,78.31
2023-01-06T01:55:56.662Z,78.21
2023-01-06T01:58:35.486Z,78.28
2023-01-06T02:01:10.826Z,78.35
2023-01-06T02:03:45.206Z,78.14
2023-01-06T02:06:22.219Z,77.73
2023-01-06T02:09:04.032Z,78.30
2023-01-06T02:11:39.671Z,78.14
2023-01-06T02:14:14.664Z,78.28
2023-01-06T02:17:02.341Z,77.70
2023-01-06T02:20:06.973Z,78.00
2023-01-06T02:23:04.035Z,78.33
2023-01-06T02:26:00.206Z,77.84
2023-01-06T02:28:59.903Z,77.83
2023-01-06T02:31:59.256Z,77.71
2023-01-06T02:34:44.643Z,77.61
2023-01-06T02:37:37.437Z,78.26
2023-01-06T02:40:22.803Z,78.04
2023-01-06T02:43:08.137Z,78.11
2023-01-06T02:45:50.866Z,78.33
2023-01-06T02:48:34.287Z,78.27
2023-01-06T02:51:15.038Z,78.04
2023-01-06T02:54:00.032Z,77.80
2023-01-06T02:56:38.993Z,77.26
2023-01-06T02:59:21.566Z,77.81
2023-01-06T03:01:56.334Z,78.08
2023-01-06T03:04:34.843Z,78.19
2023-01-06T03:07:10.040Z,78.15
2023-01-06T03:09:46.079Z,78.05
2023-01-06T03:12:27.944Z,78.16
2023-01-06T03:15:01.643Z,78.13
2023-01-06T03:17:35.573Z,77.54
2023-01-06T03:20:12.577Z,77.43
2023-01-06T03:22:45.561Z,77.62
2023-01-06T03:25:18.794Z,77.89
2023-01-06T03:27:54.511Z,77.83
2023-01-06T03:30:36.428Z,77.76
2023-01-06T03:33:19.621Z,77.55
2023-01-06T03:36:05.020Z,77.50
2023-01-06T03:38:48.539Z,77.29
2023-01-06T03:41:52.842Z,76.92
2023-01-06T03:44:34.940Z,76.44
2023-01-06T03:47:16.752Z,76.91
2023-01-06T03:49:57.187Z,77.14
2023-01-06T03:52:35.941Z,77.09
2023-01-06T03:55:14.574Z,76.79
2023-01-06T03:57:53.132Z,76.95
2023-01-06T04:00:29.758Z,76.40
2023-01-06T04:03:10.752Z,76.29
2023-01-06T04:05:44.510Z,76.75
2023-01-06T04:08:19.031Z,76.32
2023-01-06T04:10:52.137Z,76.66
2023-01-06T04:13:24.138Z,76.95
2023-01-06T04:15:59.395Z,76.66
2023-01-06T04:18:32.278Z,76.72
2023-01-06T04:21:06.131Z,76.93
2023-01-06T04:23:41.274Z,76.70
2023-01-06T04:26:14.429Z,76.91
2023-01-06T04:28:53.774Z,76.92
2023-01-06T04:31:27.150Z,76.87
2023-01-06T04:34:03.366Z,77.08
2023-01-06T04:36:36.867Z,76.99
2023-01-06T04:39:11.308Z,76.70
2023-01-06T04:41:44.239Z,77.16
2023-01-06T04:44:17.038Z,77.44
2023-01-06T04:46:50.364Z,77.11
2023-01-06T04:49:23.428Z,77.29
2023-01-06T04:51:56.478Z,77.61
2023-01-06T04:54:30.892Z,77.39
2023-01-06T04:57:04.221Z,77.50
2023-01-06T04:59:37.222Z,77.51
2023-01-06T05:02:09.983Z,77.46
2023-01-06T05:04:47.687Z,77.45
2023-01-06T05:07:23.472Z,77.39
2023-01-06T05:09:57.644Z,77.18
2023-01-06T05:12:31.942Z,77.84
2023-01-06T05:15:05.961Z,77.62
2023-01-06T05:17:39.174Z,77.43
2023-01-06T05:20:13.105Z,77.51
2023-01-06T05:22:46.250Z,77.09
2023-01-06T05:25:20.439Z,77.21
2023-01-06T05:27:53.254Z,76.94
2023-01-06T05:30:26.046Z,77.39
2023-01-06T05:32:58.905Z,78.04
2023-01-06T05:35:31.698Z,77.97
2023-01-06T05:38:05.725Z,77.71
2023-01-06T05:40:39.917Z,78.00
2023-01-06T05:43:12.854Z,77.84
2023-01-06T05:45:45.706Z,77.25
2023-01-06T05:48:20.001Z,78.20
2023-01-06T05:50:52.854Z,77.58
2023-01-06T05:53:25.602Z,77.98
2023-01-06T05:56:02.418Z,77.29
2023-01-06T05:58:35.540Z,77.82
2023-01-06T06:01:16.817Z,78.93
2023-01-06T06:03:50.063Z,79.08
2023-01-06T06:07:18.271Z,78.89
2023-01-06T06:09:51.540Z,79.27
2023-01-06T06:12:25.758Z,78.93
2023-01-06T06:14:58.608Z,78.79
2023-01-06T06:17:32.509Z,78.94
2023-01-06T06:20:06.677Z,79.26
2023-01-06T06:23:03.997Z,79.36
2023-01-06T06:25:36.823Z,79.21
2023-01-06T06:28:11.170Z,79.25
2023-01-06T06:30:44.172Z,79.17
2023-01-06T06:33:20.523Z,79.39
2023-01-06T06:35:58.410Z,78.76
2023-01-06T06:38:31.552Z,79.00
2023-01-06T06:41:06.488Z,78.95
2023-01-06T06:43:41.220Z,78.83
2023-01-06T06:46:14.452Z,78.69
2023-01-06T06:48:47.975Z,78.80
2023-01-06T06:51:23.573Z,78.93
2023-01-06T06:53:56.646Z,79.39
2023-01-06T06:56:29.658Z,79.47
2023-01-06T06:59:03.937Z,78.33
2023-01-06T07:01:36.873Z,78.27
2023-01-06T07:04:09.884Z,78.64
2023-01-06T07:06:43.051Z,78.39
2023-01-06T07:09:16.034Z,78.43
2023-01-06T07:11:48.984Z,78.53
2023-01-06T07:14:23.341Z,78.22
2023-01-06T07:16:56.182Z,78.07
2023-01-06T07:19:29.092Z,78.57
2023-01-06T07:22:01.915Z,78.58
2023-01-06T07:24:34.742Z,78.54
2023-01-06T07:27:07.806Z,78.89
2023-01-06T07:29:42.267Z,78.61
2023-01-06T07:32:15.395Z,78.00
2023-01-06T07:34:53.187Z,78.88
2023-01-06T07:37:29.573Z,78.86
2023-01-06T07:40:02.722Z,78.68
2023-01-06T07:42:36.635Z,78.56
2023-01-06T07:45:12.067Z,79.56
2023-01-06T07:47:44.854Z,78.50
2023-01-06T07:50:17.800Z,78.34
2023-01-06T07:52:51.114Z,77.99
2023-01-06T07:55:24.071Z,77.26
2023-01-06T07:57:56.913Z,77.92
2023-01-06T08:00:31.171Z,77.79
2023-01-06T08:03:06.084Z,78.35
2023-01-06T08:05:41.410Z,79.25
2023-01-06T08:08:14.236Z,78.14
2023-01-06T08:10:46.987Z,78.34
2023-01-06T08:13:20.641Z,78.71
2023-01-06T08:15:54.865Z,78.95
2023-01-06T08:18:29.568Z,79.68
2023-01-06T08:21:03.018Z,79.22
2023-01-06T08:23:36.909Z,79.35
2023-01-06T08:26:13.430Z,78.80
2023-01-06T08:28:47.102Z,79.53
2023-01-06T08:31:22.505Z,79.63
2023-01-06T08:33:55.494Z,79.03
2023-01-06T08:36:29.029Z,79.33
2023-01-06T08:39:01.861Z,79.36
2023-01-06T08:41:34.672Z,78.87
2023-01-06T08:44:08.085Z,79.61
2023-01-06T08:46:42.172Z,78.79
2023-01-06T08:49:15.338Z,78.47
2023-01-06T08:51:49.692Z,76.91
2023-01-06T08:54:22.772Z,76.96
2023-01-06T08:56:55.442Z,78.31
2023-01-06T08:59:28.224Z,78.97
2023-01-06T09:02:02.761Z,78.77
2023-01-06T09:04:35.724Z,79.16
2023-01-06T09:07:08.344Z,78.53
2023-01-06T09:09:41.519Z,78.80
2023-01-06T09:12:14.350Z,78.70
2023-01-06T09:14:47.147Z,78.23
2023-01-06T09:17:21.296Z,77.83
2023-01-06T09:19:54.185Z,78.61
2023-01-06T09:22:26.829Z,78.88
2023-01-06T09:24:59.523Z,78.59
2023-01-06T09:27:32.303Z,78.79
2023-01-06T09:30:06.129Z,78.76
2023-01-06T09:32:40.135Z,79.27
2023-01-06T09:35:12.965Z,78.76
2023-01-06T09:37:45.933Z,78.96
2023-01-06T09:40:20.872Z,79.00
2023-01-06T09:43:03.312Z,78.75
2023-01-06T09:45:43.602Z,78.91
2023-01-06T09:48:22.108Z,78.92
2023-01-06T09:50:59.683Z,77.88
2023-01-06T09:53:37.919Z,78.06
2023-01-06T09:56:17.405Z,78.04
2023-01-06T09:58:55.725Z,77.90
2023-01-06T10:01:33.243Z,77.92
2023-01-06T10:04:07.742Z,77.41
2023-01-06T10:06:45.501Z,77.76
2023-01-06T10:09:28.364Z,77.73
2023-01-06T10:12:14.453Z,77.53
2023-01-06T10:14:59.940Z,77.40
2023-01-06T10:17:52.852Z,77.56
2023-01-06T10:20:44.649Z,77.12
2023-01-06T10:23:30.535Z,77.20
2023-01-06T10:26:12.229Z,77.34
2023-01-06T10:28:48.283Z,76.99
2023-01-06T10:31:24.497Z,77.45
2023-01-06T10:33:59.724Z,76.97
2023-01-06T10:36:39.838Z,77.27
2023-01-06T10:39:17.258Z,76.86
2023-01-06T10:42:19.475Z,76.94
2023-01-06T10:44:52.256Z,76.55
2023-01-06T10:47:29.108Z,76.63
2023-01-06T10:50:02.090Z,77.28
2023-01-06T10:52:36.945Z,76.79
2023-01-06T10:55:30.188Z,77.19
2023-01-06T10:58:12.311Z,76.13
2023-01-06T11:00:59.713Z,76.81
2023-01-06T11:03:34.430Z,76.84
2023-01-06T11:06:11.380Z,75.42
2023-01-06T11:08:45.986Z,75.39
2023-01-06T11:11:29.261Z,75.83
2023-01-06T11:14:05.933Z,75.50
2023-01-06T11:16:38.933Z,75.39
2023-01-06T11:19:34.073Z,75.49
2023-01-06T11:22:27.691Z,75.06
2023-01-06T11:25:02.243Z,75.85
2023-01-06T11:27:35.191Z,74.28
2023-01-06T11:30:23.117Z,73.91
2023-01-06T11:32:56.592Z,74.60
2023-01-06T11:35:34.550Z,74.46
2023-01-06T11:38:07.436Z,75.49
2023-01-06T11:40:43.976Z,74.21
2023-01-06T11:43:20.598Z,74.53
2023-01-06T11:45:57.109Z,74.44
2023-01-06T11:48:35.426Z,74.80
2023-01-06T11:51:09.887Z,74.97
2023-01-06T11:53:57.351Z,74.49
2023-01-06T11:56:31.402Z,74.80
2023-01-06T11:59:11.537Z,75.14
2023-01-06T12:01:49.184Z,75.20
2023-01-06T12:04:29.233Z,74.98
2023-01-06T12:07:08.886Z,75.37
2023-01-06T12:09:45.440Z,75.28
2023-01-06T12:12:22.262Z,75.64
2023-01-06T12:14:56.728Z,74.86
2023-01-06T12:17:43.090Z,75.85
2023-01-06T12:20:20.718Z,75.77
2023-01-06T12:22:57.876Z,75.24
2023-01-06T12:25:36.149Z,75.01
2023-01-06T12:28:18.526Z,74.93
2023-01-06T12:31:01.273Z,75.64
2023-01-06T12:33:39.079Z,75.94
2023-01-06T12:36:18.463Z,75.11
2023-01-06T12:38:55.723Z,74.78
2023-01-06T12:41:37.359Z,75.01
2023-01-06T12:44:31.170Z,75.27
2023-01-06T12:47:13.468Z,75.41
2023-01-06T12:49:52.798Z,76.13
2023-01-06T12:52:32.322Z,75.63
2023-01-06T12:55:06.043Z,75.39
2023-01-06T12:57:54.983Z,75.57
2023-01-06T13:00:45.606Z,74.75
2023-01-06T13:03:53.842Z,75.46
2023-01-06T13:06:37.952Z,76.15
2023-01-06T13:09:25.963Z,77.30
2023-01-06T13:12:14.406Z,75.96
2023-01-06T13:14:58.843Z,75.47
2023-01-06T13:17:37.416Z,76.14
2023-01-06T13:20:17.897Z,76.58
2023-01-06T13:23:04.944Z,75.97
2023-01-06T13:26:00.135Z,75.84
2023-01-06T13:28:43.631Z,77.33
2023-01-06T13:31:30.781Z,75.53
2023-01-06T13:34:30.774Z,75.34
2023-01-06T13:37:32.669Z,75.31
2023-01-06T13:40:12.229Z,75.70
2023-01-06T13:42:53.369Z,76.17
2023-01-06T13:45:31.977Z,76.00
2023-01-06T13:48:09.001Z,76.42
2023-01-06T13:50:43.952Z,75.55
2023-01-06T13:53:22.097Z,76.17
2023-01-06T13:56:25.758Z,75.28
2023-01-06T13:59:19.011Z,75.90
2023-01-06T14:01:53.146Z,75.75
2023-01-06T14:04:48.442Z,75.38
2023-01-06T14:07:34.076Z,75.58
2023-01-06T14:10:29.061Z,75.27
2023-01-06T14:13:03.012Z,75.10
2023-01-06T14:15:55.388Z,74.72
2023-01-06T14:18:35.011Z,75.31
2023-01-06T14:21:17.635Z,74.26
2023-01-06T14:23:55.343Z,75.62
2023-01-06T14:26:49.220Z,74.85
2023-01-06T14:29:59.253Z,74.80
2023-01-06T14:33:01.608Z,75.49
2023-01-06T14:35:42.026Z,75.87
2023-01-06T14:38:25.491Z,75.16
2023-01-06T14:41:04.933Z,75.88
2023-01-06T14:43:54.188Z,76.35
2023-01-06T14:46:30.295Z,75.82
2023-01-06T14:49:05.398Z,74.79
2023-01-06T14:51:38.216Z,75.64
2023-01-06T14:54:19.626Z,75.51
2023-01-06T14:56:56.499Z,76.11
2023-01-06T14:59:29.404Z,76.24
2023-01-06T15:02:05.202Z,75.51
2023-01-06T15:04:38.141Z,75.27
2023-01-06T15:07:19.441Z,75.15
2023-01-06T15:09:53.367Z,74.35
2023-01-06T15:12:30.029Z,75.55
2023-01-06T15:15:15.759Z,74.58
2023-01-06T15:17:48.530Z,74.89
2023-01-06T15:20:22.999Z,74.86
2023-01-06T15:22:56.015Z,76.99
2023-01-06T15:25:30.563Z,76.37
2023-01-06T15:28:04.606Z,75.61
2023-01-06T15:30:37.428Z,75.48
2023-01-06T15:33:12.968Z,75.62
2023-01-06T15:35:46.517Z,76.74
2023-01-06T15:38:28.006Z,74.63
2023-01-06T15:41:01.471Z,76.37
2023-01-06T15:43:44.919Z,77.44
2023-01-06T15:46:17.786Z,76.45
2023-01-06T15:48:52.203Z,76.53
2023-01-06T15:51:25.216Z,76.46
2023-01-06T15:53:59.694Z,76.34
2023-01-06T15:56:32.776Z,76.04
2023-01-06T16:02:18.626Z,77.37
2023-01-06T16:08:36.516Z,76.88
2023-01-06T16:11:46.264Z,76.92
2023-01-06T16:14:28.207Z,76.33
2023-01-06T16:17:09.485Z,76.11
2023-01-06T16:19:47.754Z,76.16
2023-01-06T16:22:30.285Z,76.83
2023-01-06T16:25:06.648Z,76.27
2023-01-06T16:27:39.512Z,76.02
2023-01-06T16:30:25.270Z,76.06
2023-01-06T16:33:00.988Z,76.27
2023-01-06T16:35:35.382Z,77.27
2023-01-06T16:38:08.614Z,75.74
2023-01-06T16:40:41.547Z,76.69
2023-01-06T16:43:14.548Z,75.90
2023-01-06T16:45:51.067Z,76.03
2023-01-06T16:48:25.316Z,75.96
2023-01-06T16:50:59.153Z,75.86
2023-01-06T16:53:33.817Z,75.96
2023-01-06T16:56:15.724Z,75.89
2023-01-06T16:58:48.619Z,75.90
2023-01-06T17:01:22.743Z,76.25
2023-01-06T17:03:59.003Z,76.42
2023-01-06T17:06:32.414Z,76.29
2023-01-06T17:09:17.905Z,76.21
2023-01-06T17:11:52.881Z,76.70
2023-01-06T17:14:25.824Z,76.38
2023-01-06T17:17:00.868Z,75.85
2023-01-06T17:19:36.783Z,75.96
2023-01-06T17:22:22.653Z,75.54
2023-01-06T17:24:59.319Z,75.91
2023-01-06T17:27:32.158Z,76.72
2023-01-06T17:30:15.285Z,76.26
2023-01-06T17:32:48.895Z,76.81
2023-01-06T17:35:28.123Z,76.34
2023-01-06T17:38:03.736Z,76.57
2023-01-06T17:40:38.554Z,76.79
2023-01-06T17:43:23.215Z,76.63
2023-01-06T17:45:56.447Z,76.82
2023-01-06T17:48:29.418Z,76.51
2023-01-06T17:51:03.361Z,77.07
2023-01-06T17:53:55.453Z,76.52
2023-01-06T17:56:28.327Z,77.04
2023-01-06T17:59:10.654Z,76.81
2023-01-06T18:01:43.718Z,76.96
2023-01-06T18:04:16.901Z,76.84
2023-01-06T18:06:52.886Z,77.07
2023-01-06T18:09:25.828Z,76.99
2023-01-06T18:12:03.558Z,77.32
2023-01-06T18:14:41.925Z,77.10
2023-01-06T18:17:20.650Z,76.96
2023-01-06T18:19:53.986Z,77.17
2023-01-06T18:22:32.923Z,77.27
2023-01-06T18:25:16.929Z,77.29
2023-01-06T18:27:51.929Z,77.34
2023-01-06T18:30:28.059Z,77.11
2023-01-06T18:33:01.543Z,77.04
2023-01-06T18:35:34.406Z,76.91
2023-01-06T18:38:09.322Z,77.56
2023-01-06T18:40:43.205Z,77.21
2023-01-06T18:43:23.832Z,77.54
2023-01-06T18:45:59.881Z,77.41
2023-01-06T18:48:34.551Z,77.50
2023-01-06T18:51:20.332Z,77.72
2023-01-06T18:53:54.519Z,77.96
2023-01-06T18:56:27.678Z,78.45
2023-01-06T18:59:00.824Z,78.58
2023-01-06T19:01:43.605Z,78.84
2023-01-06T19:04:22.118Z,78.43
2023-01-06T19:06:57.196Z,78.45
2023-01-06T19:09:34.743Z,78.21
2023-01-06T19:12:18.094Z,77.69
2023-01-06T19:14:53.604Z,78.38
2023-01-06T19:17:29.842Z,78.76
2023-01-06T19:20:13.638Z,78.50
2023-01-06T19:22:48.799Z,78.63
2023-01-06T19:25:32.243Z,79.01
2023-01-06T19:28:13.836Z,78.57
2023-01-06T19:30:51.311Z,78.83
2023-01-06T19:33:36.685Z,78.26
2023-01-06T19:36:39.330Z,79.26
2023-01-06T19:39:25.241Z,78.96
2023-01-06T19:42:12.879Z,79.09
2023-01-06T19:44:48.577Z,79.34
2023-01-06T19:47:24.703Z,78.97
2023-01-06T19:50:00.096Z,79.25
2023-01-06T19:52:35.627Z,78.85
2023-01-06T19:55:27.207Z,79.84
2023-01-06T19:58:06.122Z,79.24
2023-01-06T20:00:46.917Z,79.19
2023-01-06T20:03:29.242Z,79.13
2023-01-06T20:06:02.384Z,80.13
2023-01-06T20:08:35.337Z,79.22
2023-01-06T20:11:08.358Z,78.97
2023-01-06T20:13:42.577Z,79.78
2023-01-06T20:16:15.447Z,79.60
2023-01-06T20:18:48.220Z,79.39
2023-01-06T20:21:20.966Z,79.65
2023-01-06T20:23:53.834Z,79.17
2023-01-06T20:26:27.165Z,79.32
2023-01-06T20:29:04.017Z,79.18
2023-01-06T20:31:36.948Z,79.75
2023-01-06T20:34:09.570Z,79.70
2023-01-06T20:36:42.387Z,79.42
2023-01-06T20:39:15.236Z,79.48
2023-01-06T20:41:48.007Z,79.26
2023-01-06T20:44:25.100Z,79.06
2023-01-06T20:46:57.890Z,78.97
2023-01-06T20:49:31.020Z,78.98
2023-01-06T20:52:03.977Z,79.27
2023-01-06T20:54:36.598Z,78.76
2023-01-06T20:57:09.357Z,78.81
2023-01-06T20:59:43.468Z,78.98
2023-01-06T21:02:16.967Z,79.33
2023-01-06T21:04:51.349Z,79.47
2023-01-06T21:07:27.140Z,79.32
2023-01-06T21:10:00.981Z,79.43
2023-01-06T21:12:33.922Z,79.53
2023-01-06T21:15:08.909Z,80.01
2023-01-06T21:17:41.942Z,79.71
2023-01-06T21:20:14.817Z,79.74
2023-01-06T21:22:47.646Z,79.29
2023-01-06T21:25:20.513Z,79.68
2023-01-06T21:27:53.512Z,79.46
2023-01-06T21:30:28.500Z,79.36
2023-01-06T21:33:01.760Z,79.78
2023-01-06T21:35:34.944Z,80.05
2023-01-06T21:38:07.691Z,80.12
2023-01-06T21:40:40.578Z,80.32
2023-01-06T21:43:12.535Z,79.88
2023-01-06T21:45:47.930Z,79.65
2023-01-06T21:48:22.499Z,80.08
2023-01-06T21:50:55.255Z,80.66
2023-01-06T21:53:30.736Z,80.44
2023-01-06T21:56:03.635Z,80.07
2023-01-06T21:58:36.511Z,79.88
2023-01-06T22:01:10.670Z,79.61
2023-01-06T22:03:43.855Z,80.53
2023-01-06T22:06:18.421Z,80.26
2023-01-06T22:08:54.505Z,79.95
2023-01-06T22:11:29.990Z,80.42
2023-01-06T22:14:03.427Z,80.51
2023-01-06T22:16:40.642Z,80.18
2023-01-06T22:19:15.209Z,79.73
2023-01-06T22:21:50.894Z,80.28
2023-01-06T22:24:25.146Z,80.25
2023-01-06T22:26:58.121Z,80.75
2023-01-06T22:29:31.261Z,80.50
2023-01-06T22:32:07.327Z,80.89
2023-01-06T22:34:41.577Z,79.84
2023-01-06T22:37:14.694Z,79.89
2023-01-06T22:39:49.433Z,80.24
2023-01-06T22:42:22.789Z,79.79
2023-01-06T22:44:56.246Z,80.19
2023-01-06T22:47:30.958Z,80.34
2023-01-06T22:50:05.580Z,79.95
2023-01-06T22:52:38.436Z,79.84
2023-01-06T22:55:12.126Z,80.32
2023-01-06T22:57:45.174Z,79.80
2023-01-06T23:00:19.715Z,79.55
2023-01-06T23:02:53.912Z,79.82
2023-01-06T23:05:26.934Z,80.11
2023-01-06T23:07:59.776Z,80.30
2023-01-06T23:10:32.805Z,80.24
2023-01-06T23:13:05.642Z,80.58
2023-01-06T23:15:38.521Z,80.49
2023-01-06T23:18:12.923Z,80.52
2023-01-06T23:20:45.593Z,80.06
2023-01-06T23:23:18.550Z,79.82
2023-01-06T23:25:51.324Z,79.77
2023-01-06T23:28:24.309Z,79.96
2023-01-06T23:31:01.375Z,79.82
2023-01-06T23:33:38.646Z,79.58
2023-01-06T23:36:13.199Z,79.53
2023-01-06T23:38:46.895Z,79.89
2023-01-06T23:41:21.849Z,79.59
2023-01-06T23:43:56.154Z,80.14
2023-01-06T23:46:30.466Z,79.67
2023-01-06T23:49:05.547Z,79.63
2023-01-06T23:51:38.914Z,79.67
2023-01-06T23:54:13.006Z,79.21
2023-01-06T23:56:46.064Z,79.25
2023-01-06T23:59:18.691Z,79.15
